Terminal Aerodrome Forecast
Issued by NWS

Home | Current Version | Previous Version | Text Only | Print | Product List | Glossary On
Versions: 1 2 3 4 5 6 7 8 9 10 11 12 13 14 15 16 17 18 19 20 21 22 23 24 25 26 27 28
000
FTUS45 KSLC 250540
TAFBCE
TAF
KBCE 250540Z 2506/2606 20008KT P6SM FEW080 BKN120
     FM250700 26005KT P6SM SCT120
     FM251700 22010G18KT P6SM SCT070 BKN110=

USA.gov is the U.S. government's official web portal to all federal, state and local government web resources and services.